Time;durP1;ratioP1;P1;durP2;ratioP2;P2;SDS_P1;SDS_P2;PMS_P1;PMS_P2;Temp;Humidity;BMP_temperature;BMP_pressure;BME280_temperature;BME280_humidity;BME280_pressure;Samples;Min_cycle;Max_cycle;Signal;HPM_P1;HPM_P2
2021/11/14 00:02:18;;;;;;;34.23;21.73;;;;;;;;;;5098482;28;20748;-70
2021/11/14 00:04:47;;;;;;;36.30;22.03;;;;;;;;;;5098198;28;20209;-70
2021/11/14 00:07:15;;;;;;;37.43;23.10;;;;;;;;;;5098119;28;20208;-70
2021/11/14 00:09:43;;;;;;;33.13;20.77;;;;;;;;;;5098449;28;20285;-70
2021/11/14 00:12:13;;;;;;;46.23;25.60;;;;;;;;;;5098389;28;20653;-70
2021/11/14 00:14:41;;;;;;;33.13;20.80;;;;;;;;;;5098139;28;20550;-70
2021/11/14 00:17:09;;;;;;;36.87;23.90;;;;;;;;;;5098365;28;20209;-70
2021/11/14 00:19:37;;;;;;;35.00;21.83;;;;;;;;;;5087364;28;20236;-70
2021/11/14 00:22:05;;;;;;;33.47;22.57;;;;;;;;;;5097982;28;20292;-70
2021/11/14 00:24:33;;;;;;;33.77;23.10;;;;;;;;;;5098114;28;20201;-70
2021/11/14 00:27:01;;;;;;;35.47;22.13;;;;;;;;;;5098209;28;20206;-70
2021/11/14 00:29:30;;;;;;;38.03;22.50;;;;;;;;;;5097704;28;20221;-70
2021/11/14 00:31:58;;;;;;;38.13;23.80;;;;;;;;;;5098058;28;20216;-69
2021/11/14 00:34:26;;;;;;;37.17;24.03;;;;;;;;;;5098253;28;20210;-69
2021/11/14 00:36:54;;;;;;;42.67;24.90;;;;;;;;;;5097784;28;20217;-70
2021/11/14 00:39:24;;;;;;;38.37;24.87;;;;;;;;;;5097714;28;20308;-70
2021/11/14 00:41:53;;;;;;;42.57;25.03;;;;;;;;;;5094117;28;20221;-69
2021/11/14 00:44:21;;;;;;;35.63;24.63;;;;;;;;;;5095812;28;20204;-70
2021/11/14 00:46:50;;;;;;;46.17;26.33;;;;;;;;;;5097747;28;21038;-69
2021/11/14 00:49:18;;;;;;;41.43;24.43;;;;;;;;;;5097669;28;20229;-70
2021/11/14 00:51:46;;;;;;;42.93;25.23;;;;;;;;;;5097440;28;20193;-70
2021/11/14 00:54:15;;;;;;;44.67;25.93;;;;;;;;;;5093528;28;20209;-70
2021/11/14 00:56:43;;;;;;;41.40;25.47;;;;;;;;;;5095914;28;20197;-70
2021/11/14 00:59:11;;;;;;;39.30;23.67;;;;;;;;;;5097490;28;20217;-69
2021/11/14 01:01:39;;;;;;;46.17;26.23;;;;;;;;;;5097296;28;20586;-70
2021/11/14 01:04:09;;;;;;;43.10;26.07;;;;;;;;;;5097293;28;20197;-69
2021/11/14 01:06:37;;;;;;;45.33;26.03;;;;;;;;;;5096789;28;20221;-70
2021/11/14 01:09:05;;;;;;;46.33;26.23;;;;;;;;;;5097334;28;20225;-70
2021/11/14 01:11:33;;;;;;;37.40;24.50;;;;;;;;;;5097766;28;20205;-69
2021/11/14 01:14:01;;;;;;;41.03;25.60;;;;;;;;;;5097719;28;20215;-70
2021/11/14 01:16:29;;;;;;;43.47;26.23;;;;;;;;;;5097689;28;20201;-69
2021/11/14 01:18:57;;;;;;;40.50;24.50;;;;;;;;;;5097247;28;20222;-70
2021/11/14 01:21:28;;;;;;;42.70;25.83;;;;;;;;;;5096896;28;20695;-70
2021/11/14 01:23:59;;;;;;;38.53;24.10;;;;;;;;;;5097709;28;20209;-70
2021/11/14 01:26:28;;;;;;;44.50;25.80;;;;;;;;;;5097728;28;20210;-70
2021/11/14 01:28:57;;;;;;;42.90;25.27;;;;;;;;;;5097273;28;20221;-69
2021/11/14 01:31:25;;;;;;;42.77;24.37;;;;;;;;;;5097249;28;20672;-70
2021/11/14 01:33:53;;;;;;;37.67;23.63;;;;;;;;;;5097466;28;20219;-70
2021/11/14 01:36:21;;;;;;;38.57;23.83;;;;;;;;;;5096913;28;20760;-70
2021/11/14 01:38:50;;;;;;;40.83;24.83;;;;;;;;;;5097585;28;20226;-70
2021/11/14 01:41:18;;;;;;;44.77;24.70;;;;;;;;;;5097415;28;20225;-69
2021/11/14 01:43:47;;;;;;;41.67;25.13;;;;;;;;;;5100502;28;20237;-70
2021/11/14 01:46:16;;;;;;;38.43;24.53;;;;;;;;;;5101325;28;20213;-70
2021/11/14 01:48:44;;;;;;;38.13;24.93;;;;;;;;;;5101112;28;20312;-70
2021/11/14 01:51:12;;;;;;;38.67;24.50;;;;;;;;;;5100991;28;20212;-70
2021/11/14 01:53:41;;;;;;;39.93;24.97;;;;;;;;;;5101082;28;20687;-70
2021/11/14 01:56:11;;;;;;;43.50;26.13;;;;;;;;;;5101003;28;20571;-70
2021/11/14 01:58:40;;;;;;;44.57;25.37;;;;;;;;;;5100843;28;20221;-70
2021/11/14 02:01:10;;;;;;;35.37;24.20;;;;;;;;;;5100939;28;20221;-70
2021/11/14 02:03:40;;;;;;;41.17;24.07;;;;;;;;;;5100697;28;20205;-70
2021/11/14 02:06:08;;;;;;;41.10;23.93;;;;;;;;;;5100390;28;20213;-70
2021/11/14 02:08:37;;;;;;;45.77;25.73;;;;;;;;;;5100922;28;20302;-70
2021/11/14 02:11:06;;;;;;;37.50;24.37;;;;;;;;;;5100821;28;20259;-70
2021/11/14 02:13:35;;;;;;;40.60;24.10;;;;;;;;;;5100706;28;20224;-70
2021/11/14 02:16:03;;;;;;;38.20;23.73;;;;;;;;;;5100796;28;20202;-69
2021/11/14 02:18:31;;;;;;;45.90;26.23;;;;;;;;;;5100251;28;20228;-70
2021/11/14 02:21:01;;;;;;;41.87;25.47;;;;;;;;;;5089577;28;20229;-69
2021/11/14 02:23:29;;;;;;;47.63;24.97;;;;;;;;;;5100693;28;20228;-69
2021/11/14 02:25:57;;;;;;;41.80;25.63;;;;;;;;;;5100487;28;20213;-70
2021/11/14 02:28:26;;;;;;;44.20;26.00;;;;;;;;;;5100052;28;20696;-69
2021/11/14 02:30:55;;;;;;;45.03;24.77;;;;;;;;;;5100540;28;20205;-70
2021/11/14 02:33:23;;;;;;;44.47;26.53;;;;;;;;;;5100279;28;20210;-70
2021/11/14 02:35:52;;;;;;;44.20;25.30;;;;;;;;;;5099948;28;20614;-70
2021/11/14 02:38:23;;;;;;;43.83;24.80;;;;;;;;;;5100001;28;20228;-70
2021/11/14 02:40:51;;;;;;;48.10;25.83;;;;;;;;;;5100000;28;20678;-70
2021/11/14 02:43:19;;;;;;;48.40;26.53;;;;;;;;;;5099677;28;20237;-69
2021/11/14 02:45:48;;;;;;;49.90;27.83;;;;;;;;;;5099926;28;20664;-69
2021/11/14 02:48:17;;;;;;;45.63;25.47;;;;;;;;;;5099927;28;20232;-69
2021/11/14 02:50:46;;;;;;;48.80;25.13;;;;;;;;;;5100007;28;20210;-69
2021/11/14 02:53:14;;;;;;;43.53;23.83;;;;;;;;;;5099766;28;20201;-69
2021/11/14 02:55:46;;;;;;;44.27;24.67;;;;;;;;;;5099846;28;20211;-69
2021/11/14 02:58:14;;;;;;;44.23;23.17;;;;;;;;;;5099785;28;20737;-69
2021/11/14 03:00:43;;;;;;;46.13;24.23;;;;;;;;;;5099618;28;20664;-69
2021/11/14 03:03:11;;;;;;;46.70;24.57;;;;;;;;;;5099408;28;20308;-69
2021/11/14 03:05:40;;;;;;;41.60;23.57;;;;;;;;;;5099508;28;20293;-70
2021/11/14 03:08:08;;;;;;;42.73;22.70;;;;;;;;;;5099328;28;20231;-70
2021/11/14 03:10:36;;;;;;;50.37;25.03;;;;;;;;;;5099623;28;20664;-70
2021/11/14 03:13:06;;;;;;;43.47;22.90;;;;;;;;;;5099684;28;20216;-70
2021/11/14 03:15:36;;;;;;;44.30;23.43;;;;;;;;;;5099304;28;20212;-70
2021/11/14 03:18:04;;;;;;;41.67;24.37;;;;;;;;;;5099397;28;20312;-70
2021/11/14 03:20:32;;;;;;;38.83;22.10;;;;;;;;;;5099303;28;20211;-70
2021/11/14 03:23:00;;;;;;;35.10;21.97;;;;;;;;;;5099153;28;20233;-70
2021/11/14 03:25:29;;;;;;;37.50;21.27;;;;;;;;;;5099254;28;20210;-70
2021/11/14 03:27:57;;;;;;;38.90;20.67;;;;;;;;;;5098918;28;20234;-70
2021/11/14 03:30:28;;;;;;;30.67;18.70;;;;;;;;;;5099368;28;20220;-70
2021/11/14 03:32:56;;;;;;;35.97;18.77;;;;;;;;;;5098964;28;20201;-70
2021/11/14 03:35:24;;;;;;;33.53;20.17;;;;;;;;;;5098970;28;20212;-70
2021/11/14 03:37:52;;;;;;;34.33;20.50;;;;;;;;;;5098561;28;20231;-70
2021/11/14 03:40:21;;;;;;;27.67;17.70;;;;;;;;;;5099254;28;20206;-70
2021/11/14 03:42:49;;;;;;;31.40;17.73;;;;;;;;;;5098708;28;20229;-72
2021/11/14 03:45:18;;;;;;;27.47;17.63;;;;;;;;;;5099093;28;20212;-70
2021/11/14 03:47:48;;;;;;;31.97;18.27;;;;;;;;;;5099147;28;20216;-70
2021/11/14 03:50:16;;;;;;;23.03;14.83;;;;;;;;;;5098785;28;20575;-70
2021/11/14 03:52:45;;;;;;;21.07;13.50;;;;;;;;;;5098494;28;20265;-70
2021/11/14 03:55:13;;;;;;;20.27;12.97;;;;;;;;;;5098618;28;20212;-70
2021/11/14 03:57:41;;;;;;;19.77;13.00;;;;;;;;;;5098549;28;20676;-70
2021/11/14 04:00:11;;;;;;;20.70;11.87;;;;;;;;;;5098855;28;20205;-69
2021/11/14 04:02:39;;;;;;;18.27;11.30;;;;;;;;;;5098477;28;20233;-71
2021/11/14 04:05:09;;;;;;;17.60;11.17;;;;;;;;;;5097839;28;20205;-70
2021/11/14 04:07:38;;;;;;;15.67;10.80;;;;;;;;;;5097819;28;20202;-71
2021/11/14 04:10:06;;;;;;;16.70;10.03;;;;;;;;;;5098613;28;20211;-70
2021/11/14 04:12:34;;;;;;;16.03;10.17;;;;;;;;;;5098286;28;20575;-70
2021/11/14 04:15:02;;;;;;;15.67;10.33;;;;;;;;;;5098080;28;20212;-67
2021/11/14 04:17:30;;;;;;;15.77;9.17;;;;;;;;;;5097613;28;20208;-68
2021/11/14 04:19:58;;;;;;;16.57;9.70;;;;;;;;;;5095351;28;20226;-67
2021/11/14 04:22:27;;;;;;;11.60;8.73;;;;;;;;;;5095579;28;20553;-68
2021/11/14 04:24:55;;;;;;;11.73;9.13;;;;;;;;;;5097403;28;20201;-68
2021/11/14 04:27:23;;;;;;;13.00;8.83;;;;;;;;;;5097679;28;20206;-68
2021/11/14 04:29:51;;;;;;;10.40;8.03;;;;;;;;;;5097381;28;20229;-69
2021/11/14 04:32:19;;;;;;;10.83;8.47;;;;;;;;;;5097744;28;20198;-66
2021/11/14 04:34:47;;;;;;;11.77;8.27;;;;;;;;;;5097066;28;20216;-66
2021/11/14 04:37:15;;;;;;;9.93;7.47;;;;;;;;;;5096510;28;20233;-69
2021/11/14 04:39:45;;;;;;;9.63;7.27;;;;;;;;;;5097018;28;20213;-69
2021/11/14 04:42:13;;;;;;;10.23;7.20;;;;;;;;;;5097472;28;21087;-68
2021/11/14 04:44:41;;;;;;;11.27;7.93;;;;;;;;;;5097398;28;20201;-68
2021/11/14 04:47:09;;;;;;;10.57;7.73;;;;;;;;;;5097314;28;20559;-68
2021/11/14 04:49:37;;;;;;;11.40;8.53;;;;;;;;;;5094252;28;20720;-67
2021/11/14 04:52:05;;;;;;;16.20;8.13;;;;;;;;;;5094035;28;20205;-68
2021/11/14 04:54:33;;;;;;;11.33;7.70;;;;;;;;;;5097865;28;20212;-68
2021/11/14 04:57:03;;;;;;;9.90;7.30;;;;;;;;;;5097451;28;20212;-68
2021/11/14 04:59:31;;;;;;;11.33;7.23;;;;;;;;;;5097640;28;20225;-67
2021/11/14 05:01:59;;;;;;;12.27;7.60;;;;;;;;;;5097593;28;20268;-68
2021/11/14 05:04:27;;;;;;;12.13;7.37;;;;;;;;;;5099789;28;20223;-68
2021/11/14 05:06:55;;;;;;;13.80;8.53;;;;;;;;;;5105941;28;20200;-68
2021/11/14 05:09:24;;;;;;;11.77;7.47;;;;;;;;;;5107775;28;20221;-68
2021/11/14 05:11:52;;;;;;;13.27;9.20;;;;;;;;;;5103195;28;20201;-68
2021/11/14 05:14:21;;;;;;;11.93;7.87;;;;;;;;;;5107109;28;20201;-68
2021/11/14 05:16:49;;;;;;;10.33;7.27;;;;;;;;;;5108766;28;20199;-69
2021/11/14 05:19:17;;;;;;;8.80;7.47;;;;;;;;;;5108605;28;20229;-69
2021/11/14 05:21:45;;;;;;;11.07;6.50;;;;;;;;;;5106803;28;20222;-69
2021/11/14 05:24:13;;;;;;;13.77;7.33;;;;;;;;;;5101255;28;20232;-69
2021/11/14 05:26:41;;;;;;;9.50;6.43;;;;;;;;;;5101065;28;20247;-69
2021/11/14 05:29:09;;;;;;;9.40;6.57;;;;;;;;;;5101217;28;20229;-73
2021/11/14 05:31:38;;;;;;;9.60;6.90;;;;;;;;;;5101378;28;20219;-73
2021/11/14 05:34:06;;;;;;;9.37;6.83;;;;;;;;;;5101406;28;20284;-73
2021/11/14 05:36:34;;;;;;;8.03;6.53;;;;;;;;;;5100892;28;20209;-73
2021/11/14 05:39:03;;;;;;;8.97;6.23;;;;;;;;;;5100544;28;20229;-73
2021/11/14 05:41:31;;;;;;;12.00;7.17;;;;;;;;;;5101180;28;20274;-73
2021/11/14 05:43:59;;;;;;;6.60;5.50;;;;;;;;;;5095940;28;20234;-72
2021/11/14 05:46:27;;;;;;;11.30;7.17;;;;;;;;;;5099637;28;20215;-73
2021/11/14 05:48:56;;;;;;;9.40;6.10;;;;;;;;;;5101381;28;20282;-73
2021/11/14 05:51:24;;;;;;;10.93;6.20;;;;;;;;;;5100529;28;20680;-69
2021/11/14 05:53:52;;;;;;;11.20;5.83;;;;;;;;;;5100695;28;20281;-73
2021/11/14 05:56:20;;;;;;;11.30;5.80;;;;;;;;;;5100693;28;20219;-72
2021/11/14 05:58:53;;;;;;;8.80;6.07;;;;;;;;;;5100510;28;20232;-74
2021/11/14 06:01:27;;;;;;;9.30;5.83;;;;;;;;;;5100753;28;20205;-73
2021/11/14 06:04:01;;;;;;;9.60;5.70;;;;;;;;;;5100454;28;20692;-68
2021/11/14 06:06:29;;;;;;;8.03;5.80;;;;;;;;;;5099974;28;20575;-67
2021/11/14 06:08:57;;;;;;;6.77;5.90;;;;;;;;;;5101711;28;20572;-69
2021/11/14 06:11:25;;;;;;;10.50;5.93;;;;;;;;;;5109522;28;20735;-68
2021/11/14 06:13:54;;;;;;;7.27;6.27;;;;;;;;;;5100006;28;20208;-68
2021/11/14 06:16:22;;;;;;;7.90;5.47;;;;;;;;;;5091472;28;20202;-67
2021/11/14 06:18:50;;;;;;;7.67;6.27;;;;;;;;;;5088598;28;20220;-68
2021/11/14 06:21:21;;;;;;;9.37;6.23;;;;;;;;;;5099906;28;20969;-68
2021/11/14 06:23:49;;;;;;;10.70;6.03;;;;;;;;;;5100026;28;20226;-68
2021/11/14 06:26:17;;;;;;;8.77;6.13;;;;;;;;;;5100094;28;20216;-67
2021/11/14 06:28:45;;;;;;;9.07;6.10;;;;;;;;;;5098773;28;20217;-68
2021/11/14 06:31:13;;;;;;;7.93;6.00;;;;;;;;;;5099988;28;20205;-68
2021/11/14 06:33:41;;;;;;;9.17;5.90;;;;;;;;;;5095558;28;20601;-67
2021/11/14 06:36:09;;;;;;;8.00;5.30;;;;;;;;;;5093058;28;20202;-68
2021/11/14 06:38:39;;;;;;;7.60;5.70;;;;;;;;;;5099485;28;20720;-68
2021/11/14 06:41:07;;;;;;;5.93;5.03;;;;;;;;;;5099805;28;20205;-67
2021/11/14 06:43:35;;;;;;;7.43;5.03;;;;;;;;;;5099112;28;20244;-68
2021/11/14 06:46:04;;;;;;;7.20;5.47;;;;;;;;;;5099770;28;20288;-67
2021/11/14 06:48:32;;;;;;;8.20;5.50;;;;;;;;;;5097809;28;20221;-68
2021/11/14 06:51:00;;;;;;;7.23;4.87;;;;;;;;;;5099427;28;20587;-67
2021/11/14 06:53:28;;;;;;;8.63;5.30;;;;;;;;;;5107180;28;20219;-67
2021/11/14 06:55:57;;;;;;;6.83;5.13;;;;;;;;;;5107859;28;20211;-67
2021/11/14 06:58:25;;;;;;;7.80;5.00;;;;;;;;;;5109046;28;20218;-67
2021/11/14 07:00:54;;;;;;;7.60;4.87;;;;;;;;;;5107149;28;20272;-67
2021/11/14 07:03:22;;;;;;;7.23;4.87;;;;;;;;;;5104540;28;20232;-67
2021/11/14 07:05:50;;;;;;;11.40;7.70;;;;;;;;;;5093045;28;20665;-67
2021/11/14 07:08:18;;;;;;;8.53;6.07;;;;;;;;;;5086819;28;20711;-67
2021/11/14 07:10:46;;;;;;;11.17;8.23;;;;;;;;;;5108388;28;20197;-66
2021/11/14 07:13:15;;;;;;;12.03;8.07;;;;;;;;;;5099170;28;20211;-68
2021/11/14 07:15:43;;;;;;;7.80;5.57;;;;;;;;;;5099186;28;20216;-69
2021/11/14 07:18:11;;;;;;;6.80;5.00;;;;;;;;;;5094544;28;20218;-68
2021/11/14 07:20:39;;;;;;;8.00;6.13;;;;;;;;;;5109176;28;20582;-69
2021/11/14 07:23:08;;;;;;;6.57;5.83;;;;;;;;;;5109465;28;20567;-68
2021/11/14 07:25:36;;;;;;;8.00;5.70;;;;;;;;;;5106049;28;20214;-71
2021/11/14 07:28:04;;;;;;;6.73;5.57;;;;;;;;;;5103855;28;20231;-70
2021/11/14 07:30:34;;;;;;;8.97;5.70;;;;;;;;;;5105673;28;20212;-71
2021/11/14 07:33:02;;;;;;;7.50;5.70;;;;;;;;;;5099060;28;20213;-70
2021/11/14 07:35:30;;;;;;;6.57;4.90;;;;;;;;;;5098980;28;20205;-69
2021/11/14 07:37:58;;;;;;;8.73;5.40;;;;;;;;;;5107373;28;20583;-69
2021/11/14 07:40:26;;;;;;;6.73;5.40;;;;;;;;;;5098528;28;20236;-68
2021/11/14 07:42:54;;;;;;;8.20;5.37;;;;;;;;;;5103521;28;20358;-66
2021/11/14 07:45:24;;;;;;;9.13;5.10;;;;;;;;;;5106926;28;20212;-67
2021/11/14 07:47:54;;;;;;;6.67;4.77;;;;;;;;;;5103792;28;20675;-67
2021/11/14 07:50:24;;;;;;;9.53;5.40;;;;;;;;;;5098844;28;20216;-68
2021/11/14 07:52:52;;;;;;;6.93;5.13;;;;;;;;;;5098452;28;20678;-67
2021/11/14 07:55:20;;;;;;;6.37;4.70;;;;;;;;;;5106364;28;20200;-67
2021/11/14 07:57:48;;;;;;;5.40;4.43;;;;;;;;;;5093692;28;20193;-67
2021/11/14 08:00:17;;;;;;;5.33;4.63;;;;;;;;;;5106666;28;20205;-66
2021/11/14 08:02:46;;;;;;;6.07;4.93;;;;;;;;;;5105959;28;20201;-67
2021/11/14 08:05:17;;;;;;;6.93;4.97;;;;;;;;;;5098763;28;20222;-66
2021/11/14 08:07:45;;;;;;;6.27;4.50;;;;;;;;;;5084593;28;20206;-69
2021/11/14 08:10:14;;;;;;;7.80;4.83;;;;;;;;;;5086028;28;20202;-69
2021/11/14 08:12:42;;;;;;;6.57;4.67;;;;;;;;;;5088156;28;20206;-69
2021/11/14 08:15:11;;;;;;;6.13;5.53;;;;;;;;;;5087697;28;20289;-69
2021/11/14 08:17:39;;;;;;;6.03;5.00;;;;;;;;;;5082810;28;20696;-68
2021/11/14 08:20:07;;;;;;;6.57;4.70;;;;;;;;;;5082978;28;20206;-68
2021/11/14 08:22:37;;;;;;;5.80;4.90;;;;;;;;;;5084242;28;20194;-67
2021/11/14 08:25:07;;;;;;;9.07;6.00;;;;;;;;;;5084110;28;20232;-67
2021/11/14 08:27:35;;;;;;;6.30;4.43;;;;;;;;;;5083634;28;20252;-68
2021/11/14 08:30:04;;;;;;;5.57;4.17;;;;;;;;;;5086139;28;20200;-67
2021/11/14 08:32:32;;;;;;;4.83;4.00;;;;;;;;;;5084043;28;20286;-67
2021/11/14 08:35:00;;;;;;;7.33;4.57;;;;;;;;;;5091903;28;20202;-67
2021/11/14 08:37:28;;;;;;;6.77;4.87;;;;;;;;;;5086506;28;20205;-68
2021/11/14 08:39:58;;;;;;;5.50;4.20;;;;;;;;;;5097518;28;20312;-68
2021/11/14 08:42:26;;;;;;;4.53;3.90;;;;;;;;;;5097533;28;20712;-67
2021/11/14 08:44:54;;;;;;;4.30;3.90;;;;;;;;;;5097268;28;20225;-67
2021/11/14 08:47:22;;;;;;;4.67;4.13;;;;;;;;;;5097525;28;20244;-67
2021/11/14 08:49:50;;;;;;;5.43;4.30;;;;;;;;;;5095033;28;20226;-68
2021/11/14 08:52:18;;;;;;;5.47;3.90;;;;;;;;;;5097039;28;20198;-67
2021/11/14 08:54:48;;;;;;;4.23;3.80;;;;;;;;;;5097492;28;20209;-67
2021/11/14 08:57:18;;;;;;;5.13;4.20;;;;;;;;;;5097725;28;20197;-66
2021/11/14 08:59:46;;;;;;;4.17;3.43;;;;;;;;;;5096178;28;20698;-66
2021/11/14 09:02:15;;;;;;;4.10;3.63;;;;;;;;;;5082723;28;20213;-66
2021/11/14 09:04:43;;;;;;;6.37;4.10;;;;;;;;;;5084590;28;20210;-66
2021/11/14 09:07:12;;;;;;;7.27;4.53;;;;;;;;;;5085829;28;20665;-66
2021/11/14 09:09:40;;;;;;;4.33;3.73;;;;;;;;;;5086231;28;20688;-67
2021/11/14 09:12:08;;;;;;;8.13;3.90;;;;;;;;;;5083819;28;20208;-67
2021/11/14 09:14:37;;;;;;;5.67;3.00;;;;;;;;;;5085716;28;20198;-67
2021/11/14 09:17:05;;;;;;;3.43;3.13;;;;;;;;;;5082637;28;20202;-66
2021/11/14 09:19:33;;;;;;;3.80;3.00;;;;;;;;;;5086574;28;20270;-66
2021/11/14 09:22:02;;;;;;;5.27;3.07;;;;;;;;;;5084571;28;20200;-68
2021/11/14 09:24:30;;;;;;;3.03;2.73;;;;;;;;;;5082962;28;20201;-67
2021/11/14 09:26:58;;;;;;;3.37;3.07;;;;;;;;;;5084516;28;20204;-66
2021/11/14 09:29:26;;;;;;;3.67;3.37;;;;;;;;;;5088543;28;20225;-67
2021/11/14 09:31:55;;;;;;;5.93;3.20;;;;;;;;;;5082562;28;20198;-67
2021/11/14 09:34:23;;;;;;;3.57;3.27;;;;;;;;;;5084972;28;20238;-66
2021/11/14 09:36:52;;;;;;;3.70;3.30;;;;;;;;;;5084544;28;20197;-66
2021/11/14 09:39:20;;;;;;;4.53;3.40;;;;;;;;;;5087793;28;20603;-66
2021/11/14 09:41:50;;;;;;;3.37;2.70;;;;;;;;;;5097015;28;20193;-66
2021/11/14 09:44:19;;;;;;;4.70;3.17;;;;;;;;;;5106685;28;20204;-66
2021/11/14 09:46:48;;;;;;;3.20;2.90;;;;;;;;;;5105806;28;20308;-66
2021/11/14 09:49:18;;;;;;;2.87;2.67;;;;;;;;;;5105689;28;20262;-66
2021/11/14 09:51:47;;;;;;;2.67;2.33;;;;;;;;;;5105494;28;20202;-66
2021/11/14 09:54:16;;;;;;;3.80;3.00;;;;;;;;;;5096708;28;20202;-68
2021/11/14 09:56:44;;;;;;;5.10;3.10;;;;;;;;;;5096954;28;20202;-67
2021/11/14 09:59:12;;;;;;;3.20;2.90;;;;;;;;;;5096855;28;20221;-68
2021/11/14 10:01:40;;;;;;;4.70;3.20;;;;;;;;;;5097198;28;20210;-69
2021/11/14 10:04:09;;;;;;;6.60;3.50;;;;;;;;;;5099275;28;20240;-67
2021/11/14 10:06:38;;;;;;;5.10;3.07;;;;;;;;;;5100083;28;20316;-67
2021/11/14 10:09:07;;;;;;;4.83;3.47;;;;;;;;;;5100589;28;20229;-69
2021/11/14 10:11:36;;;;;;;3.23;2.97;;;;;;;;;;5100726;28;20201;-69
2021/11/14 10:14:05;;;;;;;3.93;3.23;;;;;;;;;;5100522;28;20295;-69
2021/11/14 10:16:35;;;;;;;3.50;2.90;;;;;;;;;;5100988;28;20284;-69
2021/11/14 10:19:06;;;;;;;3.57;3.03;;;;;;;;;;5098100;28;20256;-67
2021/11/14 10:21:35;;;;;;;3.33;3.03;;;;;;;;;;5100439;28;20216;-67
2021/11/14 10:24:05;;;;;;;3.27;2.77;;;;;;;;;;5100341;28;20216;-67
2021/11/14 10:26:34;;;;;;;3.13;2.83;;;;;;;;;;5100396;28;20263;-68
2021/11/14 10:29:04;;;;;;;3.50;2.63;;;;;;;;;;5100150;28;20579;-69
2021/11/14 10:31:32;;;;;;;3.07;2.73;;;;;;;;;;5103458;28;20280;-67
2021/11/14 10:34:01;;;;;;;3.00;2.43;;;;;;;;;;5111035;28;20205;-68
2021/11/14 10:36:29;;;;;;;4.20;2.87;;;;;;;;;;5109214;28;20204;-68
2021/11/14 10:39:00;;;;;;;6.33;3.07;;;;;;;;;;5104109;28;20224;-68
2021/11/14 10:41:29;;;;;;;3.57;2.93;;;;;;;;;;5095829;28;20225;-68
2021/11/14 10:44:05;;;;;;;3.90;3.27;;;;;;;;;;5086861;28;20689;-68
2021/11/14 10:46:36;;;;;;;7.43;3.07;;;;;;;;;;5084730;28;20226;-68
2021/11/14 10:49:04;;;;;;;5.00;3.07;;;;;;;;;;5087958;28;20225;-70
2021/11/14 10:51:33;;;;;;;4.17;2.80;;;;;;;;;;5086173;28;20698;-69
2021/11/14 10:54:02;;;;;;;3.43;2.87;;;;;;;;;;5084430;28;20206;-70
2021/11/14 10:56:31;;;;;;;3.90;2.40;;;;;;;;;;5086454;28;20556;-69
2021/11/14 10:59:00;;;;;;;2.60;2.40;;;;;;;;;;5087277;28;20229;-70
2021/11/14 11:01:28;;;;;;;3.80;2.87;;;;;;;;;;5098451;28;20210;-67
2021/11/14 11:03:56;;;;;;;2.43;2.23;;;;;;;;;;5099869;28;20233;-68
2021/11/14 11:06:26;;;;;;;1.80;1.70;;;;;;;;;;5098952;28;20221;-70
2021/11/14 11:08:57;;;;;;;4.30;2.27;;;;;;;;;;5099244;28;20268;-68
2021/11/14 11:11:34;;;;;;;2.10;1.87;;;;;;;;;;5099622;28;20231;-69
2021/11/14 11:14:02;;;;;;;2.13;1.90;;;;;;;;;;5099374;28;20209;-69
2021/11/14 11:16:31;;;;;;;2.10;1.90;;;;;;;;;;5099264;28;20202;-70
2021/11/14 11:19:00;;;;;;;5.07;1.70;;;;;;;;;;5095960;28;20249;-69
2021/11/14 11:21:29;;;;;;;2.00;1.90;;;;;;;;;;5099051;28;20207;-70
2021/11/14 11:24:05;;;;;;;1.67;1.57;;;;;;;;;;5099192;28;20209;-71
2021/11/14 11:26:35;;;;;;;1.57;1.47;;;;;;;;;;5099295;28;20237;-71
2021/11/14 11:29:13;;;;;;;2.40;1.87;;;;;;;;;;5098699;28;20224;-70
2021/11/14 11:31:41;;;;;;;3.37;2.40;;;;;;;;;;5098955;28;20223;-70
2021/11/14 11:34:09;;;;;;;2.60;1.67;;;;;;;;;;5099137;28;20206;-70
2021/11/14 11:36:37;;;;;;;1.90;1.80;;;;;;;;;;5098370;28;20653;-70
2021/11/14 11:39:05;;;;;;;2.17;1.80;;;;;;;;;;5095696;28;20257;-70
2021/11/14 11:41:36;;;;;;;2.40;1.87;;;;;;;;;;5098722;28;20703;-68
2021/11/14 11:44:04;;;;;;;1.67;1.50;;;;;;;;;;5098378;28;20248;-71
2021/11/14 11:46:34;;;;;;;1.57;1.47;;;;;;;;;;5098509;28;20229;-69
2021/11/14 11:49:03;;;;;;;2.07;1.77;;;;;;;;;;5098428;28;20304;-71
2021/11/14 11:51:32;;;;;;;2.47;1.90;;;;;;;;;;5098252;28;20383;-71
2021/11/14 11:54:01;;;;;;;2.00;1.90;;;;;;;;;;5098240;28;20212;-70
2021/11/14 11:56:38;;;;;;;5.07;2.40;;;;;;;;;;5098332;28;20209;-71
2021/11/14 11:59:11;;;;;;;2.63;2.33;;;;;;;;;;5098322;28;20284;-71
2021/11/14 12:01:44;;;;;;;6.40;4.73;;;;;;;;;;5098366;28;20205;-68
2021/11/14 12:04:14;;;;;;;2.03;1.83;;;;;;;;;;5098521;28;20216;-68
2021/11/14 12:06:48;;;;;;;2.90;2.07;;;;;;;;;;5098750;28;20282;-69
2021/11/14 12:09:17;;;;;;;2.60;2.23;;;;;;;;;;5097943;28;20236;-68
2021/11/14 12:11:47;;;;;;;1.80;1.70;;;;;;;;;;5085765;28;20573;-65
2021/11/14 12:14:17;;;;;;;3.20;2.40;;;;;;;;;;5085043;28;20201;-66
2021/11/14 12:16:54;;;;;;;3.10;2.30;;;;;;;;;;5084770;28;20276;-66
2021/11/14 12:19:24;;;;;;;2.77;2.40;;;;;;;;;;5086752;28;20220;-67
2021/11/14 12:21:56;;;;;;;2.53;2.23;;;;;;;;;;5081529;28;20695;-68
2021/11/14 12:24:24;;;;;;;3.67;2.90;;;;;;;;;;5085944;28;20250;-67
2021/11/14 12:26:54;;;;;;;2.40;2.20;;;;;;;;;;5082189;28;20218;-68
2021/11/14 12:29:31;;;;;;;2.43;2.10;;;;;;;;;;5095008;28;20220;-68
2021/11/14 12:32:00;;;;;;;4.40;2.17;;;;;;;;;;5085638;28;20207;-67
2021/11/14 12:34:30;;;;;;;2.70;2.10;;;;;;;;;;5098660;28;20215;-68
2021/11/14 12:37:05;;;;;;;4.80;2.50;;;;;;;;;;5095880;28;20211;-67
2021/11/14 12:39:35;;;;;;;3.07;2.77;;;;;;;;;;5093971;28;20316;-68
2021/11/14 12:42:06;;;;;;;2.87;2.10;;;;;;;;;;5091170;28;20198;-70
2021/11/14 12:44:36;;;;;;;2.57;1.53;;;;;;;;;;5085935;28;20204;-68
2021/11/14 12:47:25;;;;;;;5.20;2.60;;;;;;;;;;5082798;28;20256;-67
2021/11/14 12:49:54;;;;;;;1.63;1.53;;;;;;;;;;5083650;28;20221;-67
2021/11/14 12:52:23;;;;;;;2.00;1.90;;;;;;;;;;5085446;28;20202;-66
2021/11/14 12:54:52;;;;;;;1.67;1.53;;;;;;;;;;5085251;28;20198;-67
2021/11/14 12:57:22;;;;;;;1.63;1.53;;;;;;;;;;5081191;28;20198;-67
2021/11/14 12:59:52;;;;;;;1.70;1.13;;;;;;;;;;5096894;28;20583;-66
2021/11/14 13:02:21;;;;;;;2.20;1.20;;;;;;;;;;5094145;28;20202;-66
2021/11/14 13:04:49;;;;;;;1.87;1.77;;;;;;;;;;5097033;28;20683;-67
2021/11/14 13:07:26;;;;;;;2.80;1.70;;;;;;;;;;5094133;28;20277;-67
2021/11/14 13:09:55;;;;;;;5.90;1.80;;;;;;;;;;5090914;28;20277;-67
2021/11/14 13:12:25;;;;;;;1.40;1.30;;;;;;;;;;5097226;28;20261;-66
2021/11/14 13:14:55;;;;;;;1.60;1.43;;;;;;;;;;5096669;28;20292;-67
2021/11/14 13:17:23;;;;;;;1.40;1.30;;;;;;;;;;5097313;28;20198;-67
2021/11/14 13:19:51;;;;;;;2.00;1.80;;;;;;;;;;5094740;28;20222;-66
2021/11/14 13:22:21;;;;;;;1.27;1.27;;;;;;;;;;5095305;28;20213;-67
2021/11/14 13:24:58;;;;;;;2.70;1.70;;;;;;;;;;5095236;28;20205;-67
2021/11/14 13:27:27;;;;;;;1.60;1.50;;;;;;;;;;5095602;28;20300;-66
2021/11/14 13:29:55;;;;;;;1.80;1.50;;;;;;;;;;5095957;28;20308;-67
2021/11/14 13:32:28;;;;;;;1.43;1.33;;;;;;;;;;5095759;28;20575;-67
2021/11/14 13:34:57;;;;;;;1.33;1.23;;;;;;;;;;5096103;28;20267;-67
2021/11/14 13:37:30;;;;;;;0.77;0.77;;;;;;;;;;5093096;28;20255;-67
2021/11/14 13:40:00;;;;;;;0.73;0.73;;;;;;;;;;5097210;28;20236;-67
2021/11/14 13:42:31;;;;;;;1.00;1.00;;;;;;;;;;5101170;28;20243;-67
2021/11/14 13:45:01;;;;;;;1.47;1.30;;;;;;;;;;5100793;28;20217;-66
2021/11/14 13:47:30;;;;;;;1.40;1.30;;;;;;;;;;5100834;28;20225;-66
2021/11/14 13:49:59;;;;;;;3.37;1.37;;;;;;;;;;5101087;28;20231;-67
2021/11/14 13:52:28;;;;;;;2.50;1.00;;;;;;;;;;5100939;28;20300;-66
2021/11/14 13:54:57;;;;;;;0.90;0.90;;;;;;;;;;5100857;28;20228;-67
2021/11/14 13:57:27;;;;;;;0.90;0.90;;;;;;;;;;5101181;28;20207;-66
2021/11/14 13:59:58;;;;;;;1.13;1.13;;;;;;;;;;5100799;28;20232;-67
2021/11/14 14:02:28;;;;;;;1.07;0.93;;;;;;;;;;5100962;28;20213;-66
2021/11/14 14:04:57;;;;;;;1.30;1.20;;;;;;;;;;5100568;28;20212;-66
2021/11/14 14:07:26;;;;;;;1.70;1.43;;;;;;;;;;5095166;28;20217;-67
2021/11/14 14:09:57;;;;;;;1.50;1.40;;;;;;;;;;5098806;28;20243;-66
2021/11/14 14:12:26;;;;;;;1.47;1.00;;;;;;;;;;5101028;28;20220;-66
2021/11/14 14:14:55;;;;;;;1.17;1.17;;;;;;;;;;5100354;28;20644;-66
2021/11/14 14:17:27;;;;;;;1.40;1.30;;;;;;;;;;5100795;28;20212;-66
2021/11/14 14:19:55;;;;;;;1.40;1.30;;;;;;;;;;5097400;28;20305;-66
2021/11/14 14:22:33;;;;;;;1.30;1.20;;;;;;;;;;5100821;28;20212;-66
2021/11/14 14:25:01;;;;;;;1.70;1.40;;;;;;;;;;5100376;28;20204;-66
2021/11/14 14:27:29;;;;;;;1.50;1.27;;;;;;;;;;5100784;28;20253;-67
2021/11/14 14:29:59;;;;;;;1.27;1.20;;;;;;;;;;5100522;28;20217;-66
2021/11/14 14:32:29;;;;;;;1.03;1.03;;;;;;;;;;5100331;28;20238;-66
2021/11/14 14:35:10;;;;;;;1.13;1.13;;;;;;;;;;5099808;28;20231;-66
2021/11/14 14:37:43;;;;;;;1.07;0.90;;;;;;;;;;5099977;28;20649;-66
2021/11/14 14:40:12;;;;;;;1.17;1.10;;;;;;;;;;5100225;28;20206;-66
2021/11/14 14:42:53;;;;;;;1.37;1.30;;;;;;;;;;5099555;28;20633;-66
2021/11/14 14:45:23;;;;;;;1.20;1.10;;;;;;;;;;5100344;28;20210;-66